createdAt,value
2022-09-29T00:00:57.302Z,2.42
2022-09-29T00:03:24.981Z,2.08
2022-09-29T00:05:54.166Z,1.98
2022-09-29T00:08:23.223Z,1.70
2022-09-29T00:10:50.902Z,2.15
2022-09-29T00:13:19.244Z,1.55
2022-09-29T00:15:58.375Z,1.40
2022-09-29T00:18:26.420Z,1.80
2022-09-29T00:21:02.213Z,1.77
2022-09-29T00:23:31.012Z,1.70
2022-09-29T00:26:06.561Z,1.98
2022-09-29T00:28:35.339Z,2.40
2022-09-29T00:31:04.244Z,2.20
2022-09-29T00:33:33.644Z,1.98
2022-09-29T00:36:07.662Z,2.13
2022-09-29T00:38:35.328Z,2.17
2022-09-29T00:41:03.526Z,2.08
2022-09-29T00:43:58.635Z,3.33
2022-09-29T00:46:49.937Z,1.50
2022-09-29T00:49:31.877Z,2.20
2022-09-29T00:52:05.378Z,2.22
2022-09-29T00:54:40.078Z,2.13
2022-09-29T00:57:11.625Z,2.03
2022-09-29T00:59:43.247Z,1.60
2022-09-29T01:02:10.796Z,2.00
2022-09-29T01:04:38.359Z,1.77
2022-09-29T01:07:06.696Z,2.38
2022-09-29T01:09:38.476Z,1.80
2022-09-29T01:12:06.739Z,1.70
2022-09-29T01:14:36.694Z,2.17
2022-09-29T01:17:06.269Z,1.33
2022-09-29T01:20:13.243Z,1.50
2022-09-29T01:22:58.933Z,1.70
2022-09-29T01:25:49.123Z,1.75
2022-09-29T01:28:22.284Z,1.65
2022-09-29T01:30:51.994Z,1.27
2022-09-29T01:33:48.135Z,2.38
2022-09-29T01:36:18.150Z,1.80
2022-09-29T01:38:53.937Z,1.40
2022-09-29T01:41:41.570Z,1.55
2022-09-29T01:44:33.337Z,1.30
2022-09-29T01:47:12.493Z,1.60
2022-09-29T01:49:47.023Z,1.55
2022-09-29T01:52:27.382Z,1.70
2022-09-29T01:55:02.473Z,1.52
2022-09-29T01:57:44.929Z,2.03
2022-09-29T02:00:18.736Z,1.33
2022-09-29T02:02:48.947Z,1.70
2022-09-29T02:05:25.148Z,2.42
2022-09-29T02:07:55.970Z,2.00
2022-09-29T02:10:49.191Z,2.22
2022-09-29T02:13:18.149Z,1.40
2022-09-29T02:15:52.057Z,1.52
2022-09-29T02:18:23.734Z,3.05
2022-09-29T02:20:51.570Z,1.52
2022-09-29T02:23:19.121Z,1.42
2022-09-29T02:25:49.495Z,2.10
2022-09-29T02:28:18.164Z,1.40
2022-09-29T02:30:48.406Z,1.55
2022-09-29T02:33:24.433Z,1.80
2022-09-29T02:36:23.238Z,1.60
2022-09-29T02:39:18.652Z,1.42
2022-09-29T02:42:24.998Z,1.52
2022-09-29T02:45:01.854Z,1.77
2022-09-29T02:47:52.575Z,1.52
2022-09-29T02:50:32.053Z,1.45
2022-09-29T02:53:05.870Z,1.58
2022-09-29T02:55:57.360Z,1.80
2022-09-29T02:58:48.127Z,1.67
2022-09-29T03:01:16.841Z,1.67
2022-09-29T03:03:44.621Z,1.52
2022-09-29T03:06:13.483Z,1.60
2022-09-29T03:08:40.910Z,1.33
2022-09-29T03:11:08.187Z,2.63
2022-09-29T03:13:35.547Z,2.00
2022-09-29T03:16:03.561Z,1.55
2022-09-29T03:18:31.494Z,1.75
2022-09-29T03:20:59.491Z,1.30
2022-09-29T03:23:27.021Z,2.10
2022-09-29T03:25:54.221Z,1.75
2022-09-29T03:28:21.480Z,1.40
2022-09-29T03:30:50.595Z,1.65
2022-09-29T03:33:18.647Z,1.50
2022-09-29T03:35:45.825Z,2.40
2022-09-29T03:38:13.133Z,2.38
2022-09-29T03:40:40.578Z,2.10
2022-09-29T03:43:07.895Z,2.15
2022-09-29T03:45:39.643Z,2.00
2022-09-29T03:48:08.377Z,2.00
2022-09-29T03:50:35.625Z,2.00
2022-09-29T03:53:03.286Z,2.60
2022-09-29T03:55:31.032Z,1.92
2022-09-29T03:57:58.435Z,2.15
2022-09-29T04:00:25.923Z,1.80
2022-09-29T04:02:57.862Z,2.10
2022-09-29T04:05:25.546Z,2.03
2022-09-29T04:07:52.729Z,2.05
2022-09-29T04:10:19.993Z,2.00
2022-09-29T04:12:47.286Z,1.70
2022-09-29T04:15:14.636Z,1.75
2022-09-29T04:17:42.033Z,1.83
2022-09-29T04:20:09.478Z,2.15
2022-09-29T04:22:36.733Z,1.75
2022-09-29T04:25:05.130Z,1.80
2022-09-29T04:27:32.819Z,2.03
2022-09-29T04:30:01.091Z,2.00
2022-09-29T04:32:28.643Z,1.92
2022-09-29T04:34:55.987Z,2.35
2022-09-29T04:37:23.411Z,2.17
2022-09-29T04:39:53.043Z,2.30
2022-09-29T04:42:21.212Z,2.53
2022-09-29T04:44:48.898Z,2.45
2022-09-29T04:47:17.188Z,2.05
2022-09-29T04:49:44.472Z,1.92
2022-09-29T04:52:12.702Z,1.83
2022-09-29T04:54:40.415Z,1.95
2022-09-29T04:57:08.108Z,2.33
2022-09-29T04:59:35.327Z,2.15
2022-09-29T05:02:03.114Z,2.00
2022-09-29T05:04:31.265Z,1.98
2022-09-29T05:06:58.504Z,2.20
2022-09-29T05:09:28.746Z,2.53
2022-09-29T05:11:58.697Z,2.35
2022-09-29T05:14:26.051Z,1.90
2022-09-29T05:16:55.838Z,1.92
2022-09-29T05:19:23.117Z,1.90
2022-09-29T05:21:50.830Z,2.83
2022-09-29T05:24:18.080Z,2.38
2022-09-29T05:26:45.406Z,2.30
2022-09-29T05:29:12.726Z,2.20
2022-09-29T05:31:40.019Z,2.25
2022-09-29T05:34:07.561Z,2.47
2022-09-29T05:36:34.798Z,1.58
2022-09-29T05:39:03.041Z,2.00
2022-09-29T05:41:31.827Z,1.90
2022-09-29T05:44:01.485Z,2.88
2022-09-29T05:46:29.166Z,1.93
2022-09-29T05:48:58.800Z,1.70
2022-09-29T05:51:29.896Z,2.10
2022-09-29T05:53:57.261Z,2.15
2022-09-29T05:56:26.464Z,1.90
2022-09-29T05:58:54.417Z,2.15
2022-09-29T06:01:25.010Z,1.70
2022-09-29T06:03:55.167Z,2.08
2022-09-29T06:06:27.505Z,2.58
2022-09-29T06:08:57.740Z,2.80
2022-09-29T06:11:27.943Z,2.60
2022-09-29T06:13:56.420Z,2.63
2022-09-29T06:16:29.753Z,2.17
2022-09-29T06:18:59.325Z,2.20
2022-09-29T06:21:28.949Z,2.00
2022-09-29T06:23:58.028Z,2.30
2022-09-29T06:26:27.097Z,2.42
2022-09-29T06:28:55.576Z,2.60
2022-09-29T06:31:26.476Z,2.70
2022-09-29T06:33:56.614Z,3.00
2022-09-29T06:36:58.488Z,3.35
2022-09-29T06:39:26.154Z,2.60
2022-09-29T06:41:55.175Z,3.30
2022-09-29T06:44:24.958Z,2.67
2022-09-29T06:46:52.965Z,2.92
2022-09-29T06:49:21.311Z,2.90
2022-09-29T06:51:49.258Z,3.30
2022-09-29T06:54:20.551Z,3.00
2022-09-29T06:56:51.836Z,3.45
2022-09-29T06:59:19.521Z,3.13
2022-09-29T07:01:51.457Z,3.40
2022-09-29T07:04:20.754Z,3.58
2022-09-29T07:06:49.578Z,3.10
2022-09-29T07:09:17.086Z,2.95
2022-09-29T07:11:47.140Z,3.00
2022-09-29T07:14:16.069Z,3.03
2022-09-29T07:16:44.225Z,2.55
2022-09-29T07:19:11.585Z,2.40
2022-09-29T07:21:38.884Z,2.10
2022-09-29T07:24:07.260Z,2.08
2022-09-29T07:26:34.704Z,2.20
2022-09-29T07:29:02.485Z,2.40
2022-09-29T07:31:32.127Z,2.47
2022-09-29T07:34:03.337Z,3.03
2022-09-29T07:36:31.529Z,3.30
2022-09-29T07:38:58.840Z,3.35
2022-09-29T07:41:26.613Z,4.28
2022-09-29T07:43:54.312Z,5.35
2022-09-29T07:46:22.259Z,5.13
2022-09-29T07:48:49.595Z,4.93
2022-09-29T07:51:19.510Z,3.42
2022-09-29T07:53:47.732Z,3.58
2022-09-29T07:56:18.579Z,3.70
2022-09-29T07:58:47.873Z,4.22
2022-09-29T08:01:16.433Z,4.00
2022-09-29T08:03:52.828Z,3.95
2022-09-29T08:06:24.160Z,3.08
2022-09-29T08:09:03.460Z,2.63
2022-09-29T08:11:33.379Z,2.75
2022-09-29T08:14:02.443Z,2.70
2022-09-29T08:16:31.715Z,2.45
2022-09-29T08:19:00.355Z,3.03
2022-09-29T08:21:30.184Z,2.30
2022-09-29T08:23:57.951Z,2.60
2022-09-29T08:26:38.780Z,2.72
2022-09-29T08:29:15.600Z,2.50
2022-09-29T08:31:46.483Z,2.75
2022-09-29T08:34:14.789Z,3.30
2022-09-29T08:36:42.470Z,3.00
2022-09-29T08:39:11.576Z,2.45
2022-09-29T08:41:56.752Z,2.80
2022-09-29T08:44:39.335Z,2.40
2022-09-29T08:47:26.409Z,2.50
2022-09-29T08:50:14.146Z,2.72
2022-09-29T08:52:52.021Z,2.42
2022-09-29T08:55:23.869Z,2.95
2022-09-29T08:57:59.660Z,2.42
2022-09-29T09:00:52.629Z,3.47
2022-09-29T09:03:46.113Z,2.70
2022-09-29T09:06:42.727Z,2.10
2022-09-29T09:09:12.841Z,2.67
2022-09-29T09:12:15.178Z,3.30
2022-09-29T09:15:14.650Z,3.08
2022-09-29T09:18:03.320Z,2.77
2022-09-29T09:20:36.981Z,4.25
2022-09-29T09:23:14.285Z,3.50
2022-09-29T09:25:53.615Z,2.47
2022-09-29T09:28:32.493Z,3.17
2022-09-29T09:31:16.479Z,2.30
2022-09-29T09:34:05.699Z,2.80
2022-09-29T09:37:04.063Z,2.22
2022-09-29T09:39:37.864Z,2.60
2022-09-29T09:42:15.157Z,2.22
2022-09-29T09:44:50.489Z,2.50
2022-09-29T09:47:37.083Z,2.70
2022-09-29T09:50:15.816Z,2.20
2022-09-29T09:52:51.964Z,2.40
2022-09-29T09:55:26.492Z,3.22
2022-09-29T09:58:32.975Z,2.30
2022-09-29T10:01:08.107Z,2.92
2022-09-29T10:03:37.271Z,2.70
2022-09-29T10:06:07.832Z,3.70
2022-09-29T10:08:39.936Z,3.00
2022-09-29T10:11:28.086Z,2.78
2022-09-29T10:14:10.828Z,3.20
2022-09-29T10:16:49.732Z,2.60
2022-09-29T10:19:44.206Z,3.05
2022-09-29T10:25:07.838Z,3.03
2022-09-29T10:27:40.353Z,2.97
2022-09-29T10:30:23.850Z,3.00
2022-09-29T10:33:00.230Z,2.85
2022-09-29T10:35:35.854Z,3.00
2022-09-29T10:38:08.064Z,2.40
2022-09-29T10:40:35.852Z,3.03
2022-09-29T10:43:27.138Z,2.70
2022-09-29T10:45:58.793Z,2.40
2022-09-29T10:48:27.784Z,2.72
2022-09-29T10:50:58.511Z,2.10
2022-09-29T10:53:43.754Z,1.63
2022-09-29T10:56:23.492Z,2.08
2022-09-29T10:59:05.563Z,1.60
2022-09-29T11:01:46.104Z,1.70
2022-09-29T11:04:41.257Z,1.40
2022-09-29T11:07:13.056Z,1.20
2022-09-29T11:09:42.540Z,1.15
2022-09-29T11:12:32.187Z,1.30
2022-09-29T11:15:01.505Z,1.20
2022-09-29T11:17:39.870Z,1.05
2022-09-29T11:20:15.466Z,1.20
2022-09-29T11:22:51.919Z,0.77
2022-09-29T11:26:02.870Z,0.70
2022-09-29T11:28:49.958Z,1.08
2022-09-29T11:31:20.173Z,1.10
2022-09-29T11:34:15.488Z,1.17
2022-09-29T11:36:50.282Z,3.10
2022-09-29T11:39:36.577Z,1.80
2022-09-29T11:42:35.349Z,1.90
2022-09-29T11:45:09.006Z,1.35
2022-09-29T11:48:27.373Z,2.20
2022-09-29T11:51:38.743Z,1.10
2022-09-29T11:54:45.656Z,1.55
2022-09-29T11:57:38.395Z,1.80
2022-09-29T12:00:13.220Z,1.95
2022-09-29T12:03:22.030Z,1.45
2022-09-29T12:06:20.292Z,1.10
2022-09-29T12:09:07.729Z,1.10
2022-09-29T12:11:54.789Z,1.20
2022-09-29T12:14:54.303Z,1.20
2022-09-29T12:17:23.748Z,1.13
2022-09-29T12:20:07.621Z,1.40
2022-09-29T12:22:36.943Z,1.30
2022-09-29T12:25:13.767Z,1.30
2022-09-29T12:27:42.868Z,1.50
2022-09-29T12:30:20.874Z,1.30
2022-09-29T12:33:03.608Z,1.40
2022-09-29T12:35:55.732Z,1.50
2022-09-29T12:38:35.354Z,1.70
2022-09-29T12:41:16.794Z,1.47
2022-09-29T12:43:48.378Z,1.60
2022-09-29T12:46:31.521Z,1.63
2022-09-29T12:49:34.564Z,1.67
2022-09-29T12:52:05.805Z,1.98
2022-09-29T12:54:40.494Z,1.77
2022-09-29T12:57:21.089Z,1.40
2022-09-29T13:02:57.381Z,1.90
2022-09-29T13:05:27.626Z,1.42
2022-09-29T13:08:19.635Z,1.30
2022-09-29T13:11:03.535Z,1.45
2022-09-29T13:13:51.789Z,1.70
2022-09-29T13:16:22.260Z,1.92
2022-09-29T13:22:01.234Z,1.30
2022-09-29T13:25:24.105Z,1.70
2022-09-29T13:27:54.895Z,1.92
2022-09-29T13:30:30.087Z,1.35
2022-09-29T13:33:04.556Z,1.52
2022-09-29T13:35:47.401Z,2.92
2022-09-29T13:38:26.536Z,1.90
2022-09-29T13:41:13.802Z,1.85
2022-09-29T13:44:04.697Z,2.05
2022-09-29T13:46:32.624Z,2.03
2022-09-29T13:49:12.719Z,1.85
2022-09-29T13:55:40.176Z,1.85
2022-09-29T13:58:31.626Z,1.60
2022-09-29T14:01:01.801Z,1.70
2022-09-29T14:03:45.461Z,1.27
2022-09-29T14:09:16.596Z,1.15
2022-09-29T14:11:49.634Z,1.02
2022-09-29T14:15:11.603Z,0.80
2022-09-29T14:17:51.185Z,1.10
2022-09-29T14:20:30.270Z,1.02
2022-09-29T14:23:01.643Z,0.95
2022-09-29T14:25:50.036Z,1.17
2022-09-29T14:28:26.158Z,1.40
2022-09-29T14:30:58.902Z,0.98
2022-09-29T14:33:41.397Z,0.95
2022-09-29T14:36:15.058Z,1.17
2022-09-29T14:39:02.826Z,1.13
2022-09-29T14:41:42.874Z,1.20
2022-09-29T14:44:19.816Z,0.98
2022-09-29T14:47:20.421Z,0.82
2022-09-29T14:53:01.036Z,0.90
2022-09-29T14:55:43.064Z,1.20
2022-09-29T14:58:13.819Z,1.83
2022-09-29T15:01:12.830Z,1.30
2022-09-29T15:03:52.025Z,1.45
2022-09-29T15:06:22.266Z,1.20
2022-09-29T15:09:03.032Z,1.23
2022-09-29T15:11:43.545Z,1.10
2022-09-29T15:14:26.815Z,1.02
2022-09-29T15:17:29.450Z,1.15
2022-09-29T15:20:03.919Z,1.20
2022-09-29T15:22:52.888Z,1.20
2022-09-29T15:25:29.787Z,1.02
2022-09-29T15:28:04.368Z,1.40
2022-09-29T15:30:32.279Z,1.38
2022-09-29T15:33:20.434Z,1.40
2022-09-29T15:35:52.501Z,1.30
2022-09-29T15:38:25.603Z,1.10
2022-09-29T15:41:03.803Z,1.30
2022-09-29T15:43:44.593Z,0.90
2022-09-29T15:46:21.735Z,1.20
2022-09-29T15:49:18.667Z,1.17
2022-09-29T15:51:59.856Z,1.00
2022-09-29T15:54:40.764Z,0.88
2022-09-29T15:57:43.834Z,1.20
2022-09-29T16:00:23.094Z,1.23
2022-09-29T16:03:10.252Z,1.48
2022-09-29T16:05:44.681Z,1.10
2022-09-29T16:08:23.375Z,1.67
2022-09-29T16:11:00.632Z,1.50
2022-09-29T16:13:31.261Z,1.30
2022-09-29T16:16:10.272Z,1.27
2022-09-29T16:18:48.079Z,1.63
2022-09-29T16:21:22.952Z,1.48
2022-09-29T16:24:14.954Z,1.80
2022-09-29T16:26:49.171Z,1.20
2022-09-29T16:29:16.448Z,1.60
2022-09-29T16:31:53.076Z,1.50
2022-09-29T16:34:23.350Z,1.95
2022-09-29T16:37:18.114Z,1.60
2022-09-29T16:39:48.255Z,1.33
2022-09-29T16:42:27.232Z,1.70
2022-09-29T16:44:56.252Z,1.70
2022-09-29T16:47:29.181Z,2.60
2022-09-29T16:50:13.602Z,2.58
2022-09-29T16:52:48.408Z,3.40
2022-09-29T16:55:21.779Z,2.97
2022-09-29T16:57:55.728Z,3.05
2022-09-29T17:00:23.401Z,3.17
2022-09-29T17:02:57.874Z,2.40
2022-09-29T17:05:26.378Z,1.42
2022-09-29T17:08:13.078Z,1.90
2022-09-29T17:10:40.761Z,2.15
2022-09-29T17:13:15.401Z,2.03
2022-09-29T17:15:50.915Z,1.83
2022-09-29T17:18:21.062Z,1.58
2022-09-29T17:20:48.442Z,1.33
2022-09-29T17:23:15.646Z,1.45
2022-09-29T17:25:46.210Z,1.70
2022-09-29T17:30:49.338Z,1.30
2022-09-29T17:33:19.688Z,1.13
2022-09-29T17:35:55.136Z,1.00
2022-09-29T17:38:24.440Z,1.17
2022-09-29T17:41:33.521Z,1.20
2022-09-29T17:44:06.130Z,1.00
2022-09-29T17:46:33.479Z,1.50
2022-09-29T17:49:01.421Z,1.23
2022-09-29T17:51:29.101Z,1.30
2022-09-29T17:53:57.642Z,1.33
2022-09-29T17:56:26.298Z,1.30
2022-09-29T17:58:57.832Z,1.10
2022-09-29T18:01:26.432Z,3.75
2022-09-29T18:04:09.584Z,4.97
2022-09-29T18:06:43.233Z,3.13
2022-09-29T18:09:20.557Z,2.20
2022-09-29T18:11:54.327Z,1.80
2022-09-29T18:14:25.264Z,1.90
2022-09-29T18:16:56.127Z,1.70
2022-09-29T18:19:27.560Z,1.88
2022-09-29T18:21:59.525Z,1.98
2022-09-29T18:24:27.747Z,2.00
2022-09-29T18:27:02.163Z,1.92
2022-09-29T18:29:35.227Z,2.35
2022-09-29T18:32:06.589Z,2.25
2022-09-29T18:34:38.198Z,2.17
2022-09-29T18:37:10.458Z,1.90
2022-09-29T18:39:40.642Z,2.55
2022-09-29T18:42:11.843Z,2.03
2022-09-29T18:44:42.331Z,1.50
2022-09-29T18:47:14.649Z,1.55
2022-09-29T18:49:43.356Z,1.58
2022-09-29T18:52:11.158Z,1.27
2022-09-29T18:54:39.012Z,1.40
2022-09-29T18:57:07.624Z,1.20
2022-09-29T18:59:35.577Z,1.38
2022-09-29T19:02:03.064Z,1.20
2022-09-29T19:04:32.826Z,1.30
2022-09-29T19:07:03.877Z,1.13
2022-09-29T19:09:33.893Z,1.80
2022-09-29T19:12:04.050Z,1.17
2022-09-29T19:14:35.173Z,1.10
2022-09-29T19:17:04.021Z,1.10
2022-09-29T19:19:32.801Z,1.10
2022-09-29T19:22:01.007Z,3.45
2022-09-29T19:24:28.988Z,2.20
2022-09-29T19:26:56.567Z,2.50
2022-09-29T19:29:24.317Z,3.30
2022-09-29T19:31:51.857Z,3.08
2022-09-29T19:34:19.155Z,3.17
2022-09-29T19:36:48.629Z,3.15
2022-09-29T19:39:17.757Z,2.92
2022-09-29T19:41:46.980Z,3.20
2022-09-29T19:44:14.717Z,3.22
2022-09-29T19:46:42.195Z,3.10
2022-09-29T19:49:09.943Z,3.20
2022-09-29T19:51:57.931Z,3.05
2022-09-29T19:54:28.309Z,3.13
2022-09-29T19:57:00.592Z,2.80
2022-09-29T19:59:32.545Z,2.88
2022-09-29T20:02:01.101Z,2.95
2022-09-29T20:04:33.594Z,2.72
2022-09-29T20:07:02.327Z,2.58
2022-09-29T20:09:29.983Z,2.30
2022-09-29T20:11:58.466Z,2.72
2022-09-29T20:14:28.253Z,2.25
2022-09-29T20:16:57.865Z,2.28
2022-09-29T20:19:28.172Z,2.60
2022-09-29T20:21:57.492Z,2.45
2022-09-29T20:24:25.427Z,2.85
2022-09-29T20:26:55.642Z,2.58
2022-09-29T20:29:24.333Z,1.52
2022-09-29T20:31:53.543Z,1.77
2022-09-29T20:34:22.467Z,4.13
2022-09-29T20:36:54.391Z,2.67
2022-09-29T20:39:22.511Z,2.85
2022-09-29T20:41:50.177Z,2.20
2022-09-29T20:44:20.175Z,2.88
2022-09-29T20:46:47.646Z,2.80
2022-09-29T20:49:15.129Z,3.55
2022-09-29T20:51:43.545Z,2.97
2022-09-29T20:54:12.650Z,2.80
2022-09-29T20:56:44.411Z,2.67
2022-09-29T20:59:14.356Z,2.70
2022-09-29T21:01:43.411Z,2.50
2022-09-29T21:04:13.688Z,2.63
2022-09-29T21:09:18.712Z,2.65
2022-09-29T21:11:47.462Z,2.78
2022-09-29T21:14:19.952Z,3.20
2022-09-29T21:16:51.521Z,3.67
2022-09-29T21:19:26.834Z,3.25
2022-09-29T21:21:56.370Z,3.20
2022-09-29T21:24:24.452Z,2.58
2022-09-29T21:26:52.518Z,3.20
2022-09-29T21:29:19.935Z,2.22
2022-09-29T21:31:48.508Z,2.00
2022-09-29T21:34:16.524Z,2.50
2022-09-29T21:36:43.852Z,2.80
2022-09-29T21:39:11.797Z,2.35
2022-09-29T21:41:41.498Z,2.92
2022-09-29T21:44:13.317Z,2.80
2022-09-29T21:46:42.209Z,2.70
2022-09-29T21:49:11.394Z,2.92
2022-09-29T21:51:41.509Z,2.42
2022-09-29T21:54:13.351Z,3.00
2022-09-29T21:56:43.018Z,3.08
2022-09-29T21:59:12.523Z,2.80
2022-09-29T22:01:40.627Z,3.28
2022-09-29T22:04:09.362Z,3.45
2022-09-29T22:06:40.544Z,3.05
2022-09-29T22:09:09.145Z,3.97
2022-09-29T22:11:42.606Z,4.40
2022-09-29T22:14:11.708Z,4.10
2022-09-29T22:16:40.410Z,3.80
2022-09-29T22:19:24.653Z,3.58
2022-09-29T22:21:53.745Z,3.65
2022-09-29T22:24:21.160Z,3.28
2022-09-29T22:26:48.549Z,3.22
2022-09-29T22:29:16.047Z,2.88
2022-09-29T22:31:43.376Z,3.00
2022-09-29T22:34:11.576Z,2.65
2022-09-29T22:36:40.420Z,2.80
2022-09-29T22:39:10.838Z,3.30
2022-09-29T22:41:40.879Z,2.70
2022-09-29T22:44:09.353Z,2.47
2022-09-29T22:46:36.919Z,2.20
2022-09-29T22:49:04.651Z,2.17
2022-09-29T22:51:32.288Z,2.00
2022-09-29T22:53:59.906Z,2.40
2022-09-29T22:56:30.358Z,2.20
2022-09-29T22:59:04.995Z,2.58
2022-09-29T23:01:33.926Z,2.10
2022-09-29T23:04:01.574Z,2.10
2022-09-29T23:06:29.078Z,2.80
2022-09-29T23:08:56.356Z,2.47
2022-09-29T23:11:24.103Z,1.95
2022-09-29T23:13:53.044Z,2.30
2022-09-29T23:16:20.860Z,2.08
2022-09-29T23:18:54.050Z,2.38
2022-09-29T23:21:22.558Z,2.08
2022-09-29T23:23:56.241Z,1.75
2022-09-29T23:26:24.530Z,3.00
2022-09-29T23:28:52.086Z,2.53
2022-09-29T23:31:19.821Z,2.80
2022-09-29T23:33:55.628Z,2.63
2022-09-29T23:36:25.321Z,2.72
2022-09-29T23:39:11.072Z,2.37
2022-09-29T23:41:47.561Z,2.33
2022-09-29T23:44:19.756Z,2.55
2022-09-29T23:46:47.971Z,2.47
2022-09-29T23:49:18.469Z,2.80
2022-09-29T23:54:20.224Z,2.67
2022-09-29T23:56:49.194Z,2.67
2022-09-29T23:59:17.072Z,2.20
